createdAt,value
2023-12-30T00:02:14.146Z,7.23
2023-12-30T00:04:41.013Z,15.63
2023-12-30T00:07:07.895Z,9.50
2023-12-30T00:09:34.639Z,15.77
2023-12-30T00:12:01.482Z,15.13
2023-12-30T00:14:28.209Z,15.73
2023-12-30T00:16:54.974Z,13.70
2023-12-30T00:19:21.793Z,13.60
2023-12-30T00:21:48.636Z,12.33
2023-12-30T00:24:16.593Z,17.20
2023-12-30T00:26:46.347Z,12.80
2023-12-30T00:29:18.345Z,14.07
2023-12-30T00:31:47.907Z,14.80
2023-12-30T00:34:21.072Z,16.67
2023-12-30T00:36:48.845Z,17.37
2023-12-30T00:39:16.521Z,18.33
2023-12-30T00:41:43.803Z,16.37
2023-12-30T00:44:11.856Z,14.00
2023-12-30T00:46:38.692Z,11.27
2023-12-30T00:49:05.546Z,15.97
2023-12-30T00:51:32.385Z,18.37
2023-12-30T00:53:59.073Z,13.97
2023-12-30T00:56:26.264Z,12.93
2023-12-30T00:58:53.274Z,11.47
2023-12-30T01:01:20.184Z,19.40
2023-12-30T01:03:47.059Z,18.00
2023-12-30T01:06:14.178Z,11.93
2023-12-30T01:08:41.083Z,9.33
2023-12-30T01:11:07.858Z,14.13
2023-12-30T01:13:34.598Z,10.20
2023-12-30T01:16:05.768Z,12.47
2023-12-30T01:18:32.975Z,12.17
2023-12-30T01:20:59.793Z,8.27
2023-12-30T01:23:26.642Z,9.13
2023-12-30T01:25:53.455Z,16.20
2023-12-30T01:28:20.368Z,20.60
2023-12-30T01:30:48.286Z,12.20
2023-12-30T01:33:15.129Z,12.27
2023-12-30T01:35:41.852Z,8.83
2023-12-30T01:38:08.738Z,18.50
2023-12-30T01:40:35.538Z,18.17
2023-12-30T01:43:04.652Z,13.07
2023-12-30T01:45:31.859Z,13.80
2023-12-30T01:47:59.833Z,12.27
2023-12-30T01:50:27.278Z,15.67
2023-12-30T01:52:54.724Z,17.80
2023-12-30T01:55:21.719Z,15.23
2023-12-30T01:57:48.902Z,10.90
2023-12-30T02:00:21.596Z,22.87
2023-12-30T02:02:50.828Z,16.13
2023-12-30T02:05:18.167Z,16.80
2023-12-30T02:07:46.307Z,16.37
2023-12-30T02:10:14.049Z,14.27
2023-12-30T02:12:41.281Z,23.10
2023-12-30T02:15:22.958Z,12.17
2023-12-30T02:17:53.109Z,17.80
2023-12-30T02:20:20.030Z,30.03
2023-12-30T02:22:47.396Z,13.83
2023-12-30T02:25:15.428Z,12.80
2023-12-30T02:27:45.997Z,14.03
2023-12-30T02:30:14.069Z,17.03
2023-12-30T02:32:40.848Z,16.10
2023-12-30T02:35:08.129Z,15.60
2023-12-30T02:37:35.114Z,15.40
2023-12-30T02:40:02.009Z,12.70
2023-12-30T02:42:28.837Z,18.60
2023-12-30T02:44:55.607Z,13.70
2023-12-30T02:47:22.939Z,20.23
2023-12-30T02:49:49.908Z,13.00
2023-12-30T02:52:16.711Z,13.30
2023-12-30T02:54:43.531Z,16.87
2023-12-30T02:57:10.233Z,11.40
2023-12-30T02:59:37.271Z,13.60
2023-12-30T03:02:04.249Z,16.97
2023-12-30T03:04:31.783Z,15.63
2023-12-30T03:06:58.612Z,13.10
2023-12-30T03:09:25.409Z,13.87
2023-12-30T03:11:52.231Z,12.17
2023-12-30T03:14:18.971Z,26.17
2023-12-30T03:16:45.734Z,18.60
2023-12-30T03:19:13.762Z,9.20
2023-12-30T03:21:40.519Z,15.00
2023-12-30T03:24:07.491Z,12.47
2023-12-30T03:26:34.486Z,10.63
2023-12-30T03:29:01.215Z,13.63
2023-12-30T03:31:28.874Z,15.20
2023-12-30T03:33:56.705Z,8.80
2023-12-30T03:36:23.804Z,14.87
2023-12-30T03:38:52.749Z,15.97
2023-12-30T03:41:19.805Z,9.50
2023-12-30T03:43:46.902Z,13.73
2023-12-30T03:46:13.964Z,14.93
2023-12-30T03:48:40.786Z,14.90
2023-12-30T03:51:07.657Z,9.63
2023-12-30T03:53:34.931Z,15.30
2023-12-30T03:56:01.810Z,14.67
2023-12-30T03:58:28.975Z,6.17
2023-12-30T04:00:56.109Z,17.83
2023-12-30T04:03:23.403Z,17.60
2023-12-30T04:05:50.254Z,14.13
2023-12-30T04:08:17.084Z,12.60
2023-12-30T04:10:43.942Z,12.97
2023-12-30T04:13:11.134Z,16.53
2023-12-30T04:15:38.468Z,13.63
2023-12-30T04:18:06.226Z,14.30
2023-12-30T04:20:33.143Z,16.90
2023-12-30T04:23:00.568Z,13.63
2023-12-30T04:25:27.819Z,15.27
2023-12-30T04:27:54.877Z,14.10
2023-12-30T04:30:21.764Z,10.97
2023-12-30T04:32:48.741Z,18.27
2023-12-30T04:35:15.639Z,9.40
2023-12-30T04:37:42.483Z,16.07
2023-12-30T04:40:09.588Z,18.80
2023-12-30T04:42:36.783Z,8.53
2023-12-30T04:45:04.354Z,12.80
2023-12-30T04:47:31.388Z,10.43
2023-12-30T04:49:58.878Z,11.93
2023-12-30T04:52:25.918Z,13.00
2023-12-30T04:54:52.893Z,18.47
2023-12-30T04:57:19.835Z,15.60
2023-12-30T04:59:46.562Z,13.53
2023-12-30T05:02:13.480Z,10.93
2023-12-30T05:04:43.123Z,10.00
2023-12-30T05:07:10.339Z,15.20
2023-12-30T05:09:37.056Z,13.73
2023-12-30T05:12:03.984Z,15.80
2023-12-30T05:14:30.984Z,11.23
2023-12-30T05:16:57.969Z,15.73
2023-12-30T05:19:24.777Z,14.87
2023-12-30T05:21:52.443Z,12.00
2023-12-30T05:24:19.177Z,9.57
2023-12-30T05:26:45.969Z,17.13
2023-12-30T05:29:12.604Z,17.90
2023-12-30T05:31:39.417Z,14.40
2023-12-30T05:34:08.281Z,15.10
2023-12-30T05:36:38.753Z,12.23
2023-12-30T05:39:05.888Z,16.37
2023-12-30T05:41:32.881Z,10.17
2023-12-30T05:43:59.643Z,13.87
2023-12-30T05:46:28.634Z,10.50
2023-12-30T05:48:56.488Z,17.00
2023-12-30T05:51:24.957Z,12.13
2023-12-30T05:53:52.005Z,9.90
2023-12-30T05:56:25.314Z,10.77
2023-12-30T05:58:53.900Z,12.77
2023-12-30T06:01:21.200Z,17.57
2023-12-30T06:03:48.449Z,14.67
2023-12-30T06:06:15.753Z,19.50
2023-12-30T06:08:42.783Z,12.77
2023-12-30T06:11:09.563Z,13.70
2023-12-30T06:13:37.107Z,14.73
2023-12-30T06:16:04.191Z,12.63
2023-12-30T06:18:33.143Z,16.87
2023-12-30T06:21:00.325Z,14.40
2023-12-30T06:23:32.114Z,13.83
2023-12-30T06:25:59.408Z,17.37
2023-12-30T06:28:27.720Z,12.70
2023-12-30T06:30:55.226Z,19.33
2023-12-30T06:33:23.745Z,18.30
2023-12-30T06:35:50.830Z,18.43
2023-12-30T06:38:17.919Z,14.07
2023-12-30T06:40:46.751Z,15.93
2023-12-30T06:43:14.373Z,18.90
2023-12-30T06:45:41.278Z,18.03
2023-12-30T06:48:08.182Z,16.77
2023-12-30T06:50:35.052Z,19.07
2023-12-30T06:53:03.387Z,16.80
2023-12-30T06:55:35.517Z,12.03
2023-12-30T06:58:09.609Z,16.03
2023-12-30T07:00:37.582Z,15.80
2023-12-30T07:03:05.398Z,15.07
2023-12-30T07:05:38.000Z,8.60
2023-12-30T07:08:05.540Z,19.87
2023-12-30T07:10:32.593Z,12.70
2023-12-30T07:12:59.646Z,17.20
2023-12-30T07:15:26.668Z,15.27
2023-12-30T07:17:54.284Z,16.13
2023-12-30T07:20:22.485Z,12.00
2023-12-30T07:22:49.392Z,16.83
2023-12-30T07:25:16.400Z,9.87
2023-12-30T07:27:43.659Z,13.13
2023-12-30T07:30:11.257Z,13.07
2023-12-30T07:32:39.123Z,12.27
2023-12-30T07:35:07.152Z,15.57
2023-12-30T07:37:34.820Z,18.63
2023-12-30T07:40:03.694Z,15.23
2023-12-30T07:42:31.122Z,15.90
2023-12-30T07:44:57.915Z,14.60
2023-12-30T07:47:27.248Z,16.23
2023-12-30T07:49:54.274Z,15.07
2023-12-30T07:52:22.127Z,18.23
2023-12-30T07:54:49.562Z,14.47
2023-12-30T07:57:16.832Z,13.67
2023-12-30T07:59:43.891Z,11.83
2023-12-30T08:02:10.945Z,18.03
2023-12-30T08:04:37.729Z,22.67
2023-12-30T08:07:04.601Z,15.30
2023-12-30T08:09:31.573Z,16.93
2023-12-30T08:12:02.507Z,19.70
2023-12-30T08:14:30.769Z,23.57
2023-12-30T08:16:57.721Z,28.13
2023-12-30T08:19:24.465Z,22.30
2023-12-30T08:21:51.421Z,19.07
2023-12-30T08:24:20.470Z,18.70
2023-12-30T08:26:47.563Z,24.53
2023-12-30T08:29:15.687Z,21.80
2023-12-30T08:31:48.466Z,19.53
2023-12-30T08:34:16.151Z,20.57
2023-12-30T08:36:46.488Z,16.97
2023-12-30T08:39:13.617Z,16.53
2023-12-30T08:41:41.922Z,17.80
2023-12-30T08:44:09.280Z,19.43
2023-12-30T08:46:36.912Z,14.40
2023-12-30T08:49:06.486Z,22.70
2023-12-30T08:51:35.839Z,19.83
2023-12-30T08:54:02.834Z,21.87
2023-12-30T08:56:34.577Z,19.20
2023-12-30T08:59:02.146Z,19.00
2023-12-30T09:01:30.519Z,17.50
2023-12-30T09:03:57.797Z,18.97
2023-12-30T09:06:24.773Z,15.30
2023-12-30T09:08:51.587Z,22.43
2023-12-30T09:11:22.499Z,18.13
2023-12-30T09:13:50.587Z,25.03
2023-12-30T09:16:17.500Z,14.10
2023-12-30T09:18:44.972Z,15.87
2023-12-30T09:21:11.813Z,14.57
2023-12-30T09:23:38.915Z,21.10
2023-12-30T09:26:06.137Z,13.27
2023-12-30T09:28:33.585Z,14.90
2023-12-30T09:31:01.215Z,14.10
2023-12-30T09:33:28.276Z,15.43
2023-12-30T09:35:56.208Z,12.13
2023-12-30T09:38:26.493Z,11.10
2023-12-30T09:40:54.446Z,10.20
2023-12-30T09:43:28.780Z,11.13
2023-12-30T09:45:57.761Z,12.50
2023-12-30T09:48:29.345Z,16.10
2023-12-30T09:50:57.617Z,14.83
2023-12-30T09:53:25.417Z,15.57
2023-12-30T09:55:52.904Z,21.83
2023-12-30T09:58:20.836Z,17.40
2023-12-30T10:00:48.163Z,9.27
2023-12-30T10:03:18.250Z,21.67
2023-12-30T10:05:45.118Z,12.90
2023-12-30T10:08:12.651Z,14.00
2023-12-30T10:10:50.501Z,15.27
2023-12-30T10:13:20.263Z,18.00
2023-12-30T10:15:47.063Z,10.70
2023-12-30T10:18:15.454Z,14.00
2023-12-30T10:20:43.838Z,13.93
2023-12-30T10:23:11.001Z,16.10
2023-12-30T10:25:38.471Z,19.83
2023-12-30T10:28:05.802Z,20.83
2023-12-30T10:30:32.915Z,12.70
2023-12-30T10:33:11.113Z,9.67
2023-12-30T10:35:44.929Z,13.40
2023-12-30T10:38:13.732Z,9.50
2023-12-30T10:40:41.347Z,9.53
2023-12-30T10:43:09.485Z,14.17
2023-12-30T10:45:36.777Z,8.73
2023-12-30T10:48:07.428Z,14.83
2023-12-30T10:50:37.859Z,15.33
2023-12-30T10:53:12.575Z,18.07
2023-12-30T10:55:43.033Z,12.40
2023-12-30T10:58:18.354Z,11.83
2023-12-30T11:00:47.048Z,8.40
2023-12-30T11:03:14.308Z,18.17
2023-12-30T11:06:00.234Z,11.93
2023-12-30T11:08:45.325Z,10.90
2023-12-30T11:11:15.624Z,7.97
2023-12-30T11:13:43.270Z,13.93
2023-12-30T11:16:21.313Z,14.30
2023-12-30T11:18:55.474Z,10.60
2023-12-30T11:21:47.933Z,9.80
2023-12-30T11:24:16.386Z,9.07
2023-12-30T11:26:46.511Z,12.60
2023-12-30T11:29:19.020Z,13.27
2023-12-30T11:31:48.456Z,12.33
2023-12-30T11:34:18.726Z,16.13
2023-12-30T11:36:51.189Z,11.67
2023-12-30T11:39:27.680Z,11.73
2023-12-30T11:41:54.860Z,6.80
2023-12-30T11:44:23.249Z,13.90
2023-12-30T11:46:50.347Z,10.77
2023-12-30T11:49:25.637Z,14.33
2023-12-30T11:52:02.074Z,8.67
2023-12-30T11:54:28.862Z,15.53
2023-12-30T11:56:55.753Z,11.63
2023-12-30T11:59:22.535Z,11.27
2023-12-30T12:01:49.315Z,6.43
2023-12-30T12:04:16.256Z,8.27
2023-12-30T12:06:43.024Z,11.20
2023-12-30T12:09:11.591Z,10.33
2023-12-30T12:11:40.389Z,10.37
2023-12-30T12:14:07.160Z,8.53
2023-12-30T12:16:34.551Z,10.70
2023-12-30T12:19:05.334Z,8.97
2023-12-30T12:21:32.596Z,7.43
2023-12-30T12:23:59.343Z,6.20
2023-12-30T12:26:26.290Z,8.00
2023-12-30T12:28:57.068Z,7.13
2023-12-30T12:31:29.405Z,7.00
2023-12-30T12:33:56.349Z,7.53
2023-12-30T12:36:23.175Z,10.07
2023-12-30T12:38:51.715Z,10.57
2023-12-30T12:41:18.547Z,9.90
2023-12-30T12:43:45.489Z,9.47
2023-12-30T12:46:12.570Z,5.93
2023-12-30T12:48:39.930Z,9.67
2023-12-30T12:51:07.413Z,5.60
2023-12-30T12:53:34.241Z,6.73
2023-12-30T12:56:01.723Z,8.57
2023-12-30T12:58:28.503Z,8.00
2023-12-30T13:00:55.423Z,7.47
2023-12-30T13:03:22.220Z,7.00
2023-12-30T13:05:49.264Z,6.87
2023-12-30T13:08:16.239Z,10.03
2023-12-30T13:10:49.709Z,6.83
2023-12-30T13:13:16.818Z,6.50
2023-12-30T13:15:43.835Z,14.43
2023-12-30T13:18:14.645Z,9.00
2023-12-30T13:20:43.603Z,5.17
2023-12-30T13:23:12.499Z,6.80
2023-12-30T13:25:39.527Z,6.20
2023-12-30T13:28:07.620Z,4.00
2023-12-30T13:30:35.778Z,6.17
2023-12-30T13:33:06.303Z,5.03
2023-12-30T13:35:38.920Z,8.47
2023-12-30T13:38:16.444Z,8.90
2023-12-30T13:40:44.386Z,5.47
2023-12-30T13:43:11.635Z,8.50
2023-12-30T13:45:44.664Z,5.27
2023-12-30T13:48:24.110Z,4.70
2023-12-30T13:50:55.667Z,6.33
2023-12-30T13:53:25.199Z,8.90
2023-12-30T13:55:53.948Z,6.07
2023-12-30T13:58:21.025Z,6.20
2023-12-30T14:00:48.745Z,7.57
2023-12-30T14:03:16.850Z,6.53
2023-12-30T14:05:47.144Z,6.33
2023-12-30T14:08:31.348Z,6.63
2023-12-30T14:11:01.717Z,1.90
2023-12-30T14:13:28.568Z,8.57
2023-12-30T14:15:55.266Z,7.90
2023-12-30T14:18:22.208Z,4.17
2023-12-30T14:20:49.307Z,2.57
2023-12-30T14:23:16.143Z,4.20
2023-12-30T14:25:44.637Z,8.07
2023-12-30T14:28:12.064Z,5.80
2023-12-30T14:30:39.959Z,9.30
2023-12-30T14:33:07.575Z,4.77
2023-12-30T14:35:34.902Z,4.40
2023-12-30T14:38:03.047Z,2.70
2023-12-30T14:40:30.083Z,5.93
2023-12-30T14:42:57.084Z,4.20
2023-12-30T14:45:24.216Z,7.17
2023-12-30T14:47:51.269Z,6.00
2023-12-30T14:50:18.199Z,6.00
2023-12-30T14:52:45.185Z,5.23
2023-12-30T14:55:12.604Z,7.80
2023-12-30T14:57:41.897Z,5.63
2023-12-30T15:00:14.111Z,4.70
2023-12-30T15:02:44.762Z,4.43
2023-12-30T15:05:15.125Z,6.87
2023-12-30T15:07:42.920Z,6.23
2023-12-30T15:10:11.426Z,5.93
2023-12-30T15:12:38.764Z,5.27
2023-12-30T15:15:06.053Z,1.80
2023-12-30T15:17:33.263Z,6.40
2023-12-30T15:20:00.535Z,9.17
2023-12-30T15:22:29.515Z,6.47
2023-12-30T15:24:56.413Z,4.27
2023-12-30T15:27:23.388Z,6.03
2023-12-30T15:29:50.164Z,5.30
2023-12-30T15:32:18.232Z,2.63
2023-12-30T15:34:45.219Z,5.73
2023-12-30T15:37:13.227Z,4.80
2023-12-30T15:39:40.418Z,2.70
2023-12-30T15:42:07.963Z,1.87
2023-12-30T15:44:38.111Z,3.23
2023-12-30T15:47:08.332Z,2.07
2023-12-30T15:49:35.678Z,7.53
2023-12-30T15:52:02.616Z,3.03
2023-12-30T15:54:29.841Z,2.87
2023-12-30T15:56:56.956Z,2.83
2023-12-30T15:59:23.750Z,1.37
2023-12-30T16:01:52.035Z,4.67
2023-12-30T16:04:19.227Z,5.53
2023-12-30T16:06:46.119Z,4.57
2023-12-30T16:09:13.420Z,6.97
2023-12-30T16:11:40.875Z,5.33
2023-12-30T16:14:11.037Z,6.67
2023-12-30T16:16:45.818Z,5.00
2023-12-30T16:19:15.827Z,4.90
2023-12-30T16:21:42.946Z,6.20
2023-12-30T16:24:09.846Z,3.03
2023-12-30T16:26:36.860Z,2.57
2023-12-30T16:29:04.498Z,3.43
2023-12-30T16:31:31.755Z,5.33
2023-12-30T16:33:58.946Z,4.93
2023-12-30T16:36:26.104Z,2.87
2023-12-30T16:38:55.566Z,2.30
2023-12-30T16:41:23.866Z,4.77
2023-12-30T16:43:51.003Z,4.70
2023-12-30T16:46:19.774Z,4.03
2023-12-30T16:48:46.746Z,5.80
2023-12-30T16:51:14.023Z,4.73
2023-12-30T16:53:42.484Z,4.03
2023-12-30T16:56:09.490Z,4.80
2023-12-30T16:58:36.471Z,3.00
2023-12-30T17:01:05.175Z,2.63
2023-12-30T17:03:33.196Z,6.47
2023-12-30T17:06:00.680Z,6.93
2023-12-30T17:08:27.595Z,3.50
2023-12-30T17:10:54.282Z,6.10
2023-12-30T17:13:27.110Z,3.07
2023-12-30T17:15:58.614Z,4.47
2023-12-30T17:18:25.553Z,4.87
2023-12-30T17:20:52.288Z,4.27
2023-12-30T17:23:19.061Z,5.30
2023-12-30T17:25:45.893Z,3.50
2023-12-30T17:28:12.729Z,2.77
2023-12-30T17:30:39.612Z,5.77
2023-12-30T17:33:06.853Z,2.53
2023-12-30T17:35:34.299Z,4.83
2023-12-30T17:38:01.348Z,3.40
2023-12-30T17:40:28.244Z,5.00
2023-12-30T17:42:58.310Z,4.07
2023-12-30T17:45:25.420Z,4.13
2023-12-30T17:47:52.240Z,2.20
2023-12-30T17:50:19.118Z,4.50
2023-12-30T17:52:45.895Z,4.37
2023-12-30T17:55:12.694Z,7.93
2023-12-30T17:57:39.502Z,2.13
2023-12-30T18:00:07.996Z,3.37
2023-12-30T18:02:35.523Z,3.93
2023-12-30T18:05:02.391Z,2.17
2023-12-30T18:07:29.193Z,4.00
2023-12-30T18:09:56.091Z,5.10
2023-12-30T18:12:22.832Z,4.10
2023-12-30T18:14:49.681Z,2.40
2023-12-30T18:17:16.654Z,2.43
2023-12-30T18:19:43.979Z,3.37
2023-12-30T18:22:11.010Z,4.63
2023-12-30T18:24:37.908Z,1.67
2023-12-30T18:27:05.161Z,3.80
2023-12-30T18:29:31.971Z,1.73
2023-12-30T18:31:59.611Z,3.53
2023-12-30T18:34:26.461Z,1.57
2023-12-30T18:36:54.806Z,3.80
2023-12-30T18:39:22.505Z,2.80
2023-12-30T18:41:49.481Z,5.90
2023-12-30T18:44:16.349Z,2.27
2023-12-30T18:46:43.396Z,2.73
2023-12-30T18:49:10.354Z,4.10
2023-12-30T18:51:37.086Z,2.07
2023-12-30T18:54:04.164Z,4.40
2023-12-30T18:56:31.430Z,2.50
2023-12-30T18:58:58.517Z,2.47
2023-12-30T19:01:25.308Z,3.83
2023-12-30T19:03:56.797Z,2.53
2023-12-30T19:06:24.371Z,5.17
2023-12-30T19:08:52.518Z,4.90
2023-12-30T19:11:20.292Z,1.63
2023-12-30T19:13:48.963Z,2.93
2023-12-30T19:16:16.005Z,1.30
2023-12-30T19:18:43.319Z,1.90
2023-12-30T19:21:10.837Z,2.90
2023-12-30T19:23:39.543Z,3.33
2023-12-30T19:26:10.427Z,1.60
2023-12-30T19:28:37.304Z,2.27
2023-12-30T19:31:12.397Z,4.60
2023-12-30T19:33:41.387Z,2.60
2023-12-30T19:36:10.737Z,4.33
2023-12-30T19:38:40.876Z,3.00
2023-12-30T19:41:07.713Z,2.37
2023-12-30T19:43:35.509Z,2.63
2023-12-30T19:46:06.926Z,1.93
2023-12-30T19:48:35.453Z,4.10
2023-12-30T19:51:04.969Z,2.00
2023-12-30T19:53:32.587Z,1.73
2023-12-30T19:55:59.620Z,2.50
2023-12-30T19:58:28.109Z,1.50
2023-12-30T20:00:54.904Z,3.50
2023-12-30T20:03:21.763Z,8.97
2023-12-30T20:05:48.624Z,4.23
2023-12-30T20:08:15.906Z,2.93
2023-12-30T20:10:44.135Z,2.57
2023-12-30T20:13:11.154Z,2.47
2023-12-30T20:15:37.854Z,2.27
2023-12-30T20:18:05.095Z,2.37
2023-12-30T20:20:31.949Z,1.40
2023-12-30T20:22:59.978Z,2.20
2023-12-30T20:25:28.276Z,1.47
2023-12-30T20:27:57.134Z,2.73
2023-12-30T20:30:24.000Z,1.57
2023-12-30T20:32:50.802Z,1.93
2023-12-30T20:35:17.545Z,2.37
2023-12-30T20:37:44.376Z,3.13
2023-12-30T20:40:12.274Z,3.47
2023-12-30T20:42:39.921Z,1.60
2023-12-30T20:45:06.790Z,2.10
2023-12-30T20:47:33.855Z,5.10
2023-12-30T20:50:01.066Z,5.80
2023-12-30T20:52:27.981Z,3.33
2023-12-30T20:54:54.812Z,3.70
2023-12-30T20:57:21.686Z,1.37
2023-12-30T20:59:48.413Z,2.27
2023-12-30T21:02:17.008Z,2.60
2023-12-30T21:04:43.825Z,2.20
2023-12-30T21:07:10.960Z,1.47
2023-12-30T21:09:49.266Z,3.37
2023-12-30T21:12:16.328Z,2.53
2023-12-30T21:14:43.139Z,1.77
2023-12-30T21:17:11.306Z,6.83
2023-12-30T21:19:38.516Z,3.30
2023-12-30T21:22:06.574Z,2.10
2023-12-30T21:24:33.309Z,3.40
2023-12-30T21:27:00.270Z,4.87
2023-12-30T21:29:26.983Z,3.63
2023-12-30T21:31:53.785Z,1.87
2023-12-30T21:34:20.626Z,1.90
2023-12-30T21:36:47.427Z,2.30
2023-12-30T21:39:14.222Z,2.67
2023-12-30T21:41:41.042Z,3.60
2023-12-30T21:44:07.789Z,1.97
2023-12-30T21:46:43.927Z,1.00
2023-12-30T21:49:13.619Z,2.43
2023-12-30T21:51:44.583Z,3.27
2023-12-30T21:54:12.094Z,1.10
2023-12-30T21:56:39.036Z,2.03
2023-12-30T21:59:06.241Z,6.87
2023-12-30T22:01:33.150Z,1.83
2023-12-30T22:03:59.993Z,3.63
2023-12-30T22:06:26.885Z,0.97
2023-12-30T22:08:54.243Z,3.03
2023-12-30T22:11:29.268Z,1.30
2023-12-30T22:13:56.795Z,0.97
2023-12-30T22:16:23.818Z,0.83
2023-12-30T22:18:50.730Z,0.87
2023-12-30T22:21:18.882Z,4.60
2023-12-30T22:23:46.285Z,0.70
2023-12-30T22:26:13.052Z,1.03
2023-12-30T22:28:40.020Z,4.40
2023-12-30T22:31:10.073Z,2.13
2023-12-30T22:33:37.510Z,1.73
2023-12-30T22:36:04.615Z,2.13
2023-12-30T22:38:32.163Z,1.87
2023-12-30T22:40:59.029Z,1.60
2023-12-30T22:43:25.983Z,2.53
2023-12-30T22:45:52.731Z,2.50
2023-12-30T22:48:22.998Z,0.80
2023-12-30T22:50:53.190Z,0.67
2023-12-30T22:53:20.165Z,1.17
2023-12-30T22:55:47.055Z,3.60
2023-12-30T22:58:14.674Z,3.17
2023-12-30T23:00:41.515Z,1.97
2023-12-30T23:03:08.702Z,3.80
2023-12-30T23:05:35.687Z,1.80
2023-12-30T23:08:04.528Z,1.33
2023-12-30T23:10:31.292Z,0.77
2023-12-30T23:12:58.178Z,1.30
2023-12-30T23:15:24.988Z,0.87
2023-12-30T23:17:52.053Z,2.80
2023-12-30T23:20:19.022Z,3.00
2023-12-30T23:22:45.892Z,3.10
2023-12-30T23:25:13.366Z,4.10
2023-12-30T23:27:40.374Z,2.73
2023-12-30T23:30:07.775Z,2.77
2023-12-30T23:32:35.151Z,2.03
2023-12-30T23:35:05.251Z,4.30
2023-12-30T23:37:32.827Z,2.27
2023-12-30T23:40:04.737Z,2.40
2023-12-30T23:42:31.659Z,2.40
2023-12-30T23:44:58.451Z,2.40
2023-12-30T23:47:25.604Z,1.37
2023-12-30T23:49:52.738Z,3.63
2023-12-30T23:52:19.456Z,4.70
2023-12-30T23:55:12.923Z,2.73
2023-12-30T23:57:39.784Z,2.43
